sensor_id;sensor_type;location;lat;lon;timestamp;pressure;altitude;pressure_sealevel;temperature;humidity
43281;BME280;62175;49.416;8.690;2023-01-25T00:00:47;102368.29;;;7.28;49.73
43281;BME280;62175;49.416;8.690;2023-01-25T00:03:14;102371.93;;;7.55;49.78
43281;BME280;62175;49.416;8.690;2023-01-25T00:05:41;102369.68;;;7.25;49.48
43281;BME280;62175;49.416;8.690;2023-01-25T00:08:08;102367.26;;;7.20;49.58
43281;BME280;62175;49.416;8.690;2023-01-25T00:10:35;102363.84;;;7.17;49.34
43281;BME280;62175;49.416;8.690;2023-01-25T00:13:03;102359.72;;;6.98;49.69
43281;BME280;62175;49.416;8.690;2023-01-25T00:15:30;102359.12;;;6.93;49.47
43281;BME280;62175;49.416;8.690;2023-01-25T00:17:57;102361.31;;;7.26;49.18
43281;BME280;62175;49.416;8.690;2023-01-25T00:20:24;102360.58;;;6.95;49.55
43281;BME280;62175;49.416;8.690;2023-01-25T00:22:51;102361.42;;;7.60;49.76
43281;BME280;62175;49.416;8.690;2023-01-25T00:25:18;102354.89;;;7.06;49.46
43281;BME280;62175;49.416;8.690;2023-01-25T00:27:48;102355.16;;;7.05;49.81
43281;BME280;62175;49.416;8.690;2023-01-25T00:32:40;102347.89;;;7.63;49.31
43281;BME280;62175;49.416;8.690;2023-01-25T00:35:31;102345.50;;;7.23;49.46
43281;BME280;62175;49.416;8.690;2023-01-25T00:39:21;102340.88;;;7.12;49.07
43281;BME280;62175;49.416;8.690;2023-01-25T00:41:48;102331.40;;;7.23;49.24
43281;BME280;62175;49.416;8.690;2023-01-25T00:44:15;102324.65;;;7.36;48.92
43281;BME280;62175;49.416;8.690;2023-01-25T00:46:42;102322.60;;;7.11;49.12
43281;BME280;62175;49.416;8.690;2023-01-25T00:49:50;102318.97;;;7.29;49.43
43281;BME280;62175;49.416;8.690;2023-01-25T00:52:16;102310.65;;;6.92;49.16
43281;BME280;62175;49.416;8.690;2023-01-25T00:54:52;102307.94;;;7.33;49.56
43281;BME280;62175;49.416;8.690;2023-01-25T00:57:19;102310.90;;;7.26;49.14
43281;BME280;62175;49.416;8.690;2023-01-25T00:59:46;102310.24;;;7.55;49.19
43281;BME280;62175;49.416;8.690;2023-01-25T01:02:13;102310.29;;;7.04;49.42
43281;BME280;62175;49.416;8.690;2023-01-25T01:04:41;102308.26;;;7.31;49.24
43281;BME280;62175;49.416;8.690;2023-01-25T01:08:49;102303.03;;;7.38;49.75
43281;BME280;62175;49.416;8.690;2023-01-25T01:11:16;102302.49;;;7.37;49.53
43281;BME280;62175;49.416;8.690;2023-01-25T01:13:44;102305.86;;;7.24;49.21
43281;BME280;62175;49.416;8.690;2023-01-25T01:16:12;102301.13;;;7.42;49.02
43281;BME280;62175;49.416;8.690;2023-01-25T01:18:41;102300.66;;;7.60;48.86
43281;BME280;62175;49.416;8.690;2023-01-25T01:21:10;102302.34;;;7.69;49.02
43281;BME280;62175;49.416;8.690;2023-01-25T01:23:37;102299.72;;;7.28;49.37
43281;BME280;62175;49.416;8.690;2023-01-25T01:26:10;102300.20;;;7.11;49.37
43281;BME280;62175;49.416;8.690;2023-01-25T01:28:38;102300.62;;;7.17;49.31
43281;BME280;62175;49.416;8.690;2023-01-25T01:31:07;102306.36;;;6.98;49.29
43281;BME280;62175;49.416;8.690;2023-01-25T01:33:35;102311.98;;;7.74;49.19
43281;BME280;62175;49.416;8.690;2023-01-25T23:02:54;101327.83;;;5.71;49.02
43281;BME280;62175;49.416;8.690;2023-01-25T23:05:21;101322.35;;;6.14;48.23
43281;BME280;62175;49.416;8.690;2023-01-25T23:07:48;101314.06;;;6.04;47.20
43281;BME280;62175;49.416;8.690;2023-01-25T23:10:16;101300.19;;;6.46;48.06
43281;BME280;62175;49.416;8.690;2023-01-25T23:12:43;101295.98;;;6.45;47.66
43281;BME280;62175;49.416;8.690;2023-01-25T23:15:11;101297.15;;;6.31;47.76
43281;BME280;62175;49.416;8.690;2023-01-25T23:17:39;101292.33;;;6.06;47.93
43281;BME280;62175;49.416;8.690;2023-01-25T23:20:09;101291.62;;;6.49;47.94
43281;BME280;62175;49.416;8.690;2023-01-25T23:22:37;101286.22;;;6.11;48.17
43281;BME280;62175;49.416;8.690;2023-01-25T23:25:06;101280.09;;;6.48;48.19
43281;BME280;62175;49.416;8.690;2023-01-25T23:27:33;101273.19;;;6.71;48.04
43281;BME280;62175;49.416;8.690;2023-01-25T23:30:01;101276.59;;;6.29;47.51
43281;BME280;62175;49.416;8.690;2023-01-25T23:32:28;101270.29;;;6.43;47.32
43281;BME280;62175;49.416;8.690;2023-01-25T23:34:55;101268.71;;;6.31;47.18
43281;BME280;62175;49.416;8.690;2023-01-25T23:37:23;101265.07;;;6.24;48.22
43281;BME280;62175;49.416;8.690;2023-01-25T23:39:51;101262.53;;;6.46;47.94
43281;BME280;62175;49.416;8.690;2023-01-25T23:42:18;101257.86;;;6.26;47.75
43281;BME280;62175;49.416;8.690;2023-01-25T23:44:46;101257.05;;;5.96;48.27
43281;BME280;62175;49.416;8.690;2023-01-25T23:47:14;101253.68;;;6.52;47.34
43281;BME280;62175;49.416;8.690;2023-01-25T23:49:42;101254.47;;;6.29;47.46
43281;BME280;62175;49.416;8.690;2023-01-25T23:52:09;101250.38;;;6.27;47.49
43281;BME280;62175;49.416;8.690;2023-01-25T23:54:36;101242.05;;;6.30;47.78
43281;BME280;62175;49.416;8.690;2023-01-25T23:57:03;101235.12;;;6.54;47.36
43281;BME280;62175;49.416;8.690;2023-01-25T23:59:32;101232.99;;;6.21;47.54
